Time;durP1;ratioP1;P1;durP2;ratioP2;P2;SDS_P1;SDS_P2;PMS_P1;PMS_P2;Temp;Humidity;BMP_temperature;BMP_pressure;BME280_temperature;BME280_humidity;BME280_pressure;Samples;Min_cycle;Max_cycle;Signal;HPM_P1;HPM_P2
2022/01/12 00:00:32;;;;;;;8.80;8.00;;;1.60;99.90;;;;;;5020677;28;20674;-75
2022/01/12 00:02:59;;;;;;;8.45;7.30;;;1.60;99.90;;;;;;5029003;28;20210;-74
2022/01/12 00:05:27;;;;;;;8.20;7.40;;;1.60;99.90;;;;;;5030167;28;20210;-75
2022/01/12 00:07:54;;;;;;;10.00;9.00;;;1.60;99.90;;;;;;5024450;28;20192;-74
2022/01/12 00:10:21;;;;;;;9.57;8.68;;;1.60;99.90;;;;;;5020606;28;20272;-74
2022/01/12 00:12:48;;;;;;;7.90;6.88;;;1.50;99.90;;;;;;5022815;28;20297;-75
2022/01/12 00:15:16;;;;;;;7.35;6.65;;;1.50;99.90;;;;;;5030963;28;20224;-75
2022/01/12 00:17:43;;;;;;;7.70;6.90;;;1.40;99.90;;;;;;5018944;28;20237;-74
2022/01/12 00:20:10;;;;;;;9.48;8.02;;;1.40;99.90;;;;;;5018857;28;20206;-74
2022/01/12 00:22:40;;;;;;;8.65;7.72;;;1.40;99.90;;;;;;5021657;28;20207;-74
2022/01/12 00:25:25;;;;;;;8.27;7.40;;;1.30;99.90;;;;;;5022127;28;20586;-74
2022/01/12 00:33:22;;;;;;;6.78;6.13;;;1.10;99.90;;;;;;5017773;28;20193;-74
2022/01/12 00:35:51;;;;;;;8.45;7.65;;;1.10;99.90;;;;;;5031039;28;20635;-74
2022/01/12 00:38:21;;;;;;;8.85;7.10;;;1.10;99.90;;;;;;5023445;28;20328;-74
2022/01/12 00:40:51;;;;;;;8.07;7.38;;;1.10;99.90;;;;;;5025740;28;20199;-74
2022/01/12 00:43:19;;;;;;;8.75;7.85;;;1.10;99.90;;;;;;5012767;28;20198;-74
2022/01/12 00:45:47;;;;;;;8.32;7.53;;;1.10;99.90;;;;;;5030718;28;20214;-74
2022/01/12 00:48:15;;;;;;;10.02;7.47;;;1.00;99.90;;;;;;5023329;28;20190;-74
2022/01/12 00:50:42;;;;;;;8.95;7.93;;;1.00;99.90;;;;;;5025501;28;20218;-74
2022/01/12 00:53:10;;;;;;;8.00;7.13;;;1.00;99.90;;;;;;5030711;28;20205;-74
2022/01/12 00:55:39;;;;;;;8.00;7.20;;;1.00;99.90;;;;;;5023653;28;20297;-75
2022/01/12 00:58:06;;;;;;;8.48;7.65;;;1.00;99.90;;;;;;5030476;28;20222;-74
2022/01/12 01:00:33;;;;;;;11.75;8.55;;;1.00;99.90;;;;;;5017702;28;20230;-74
2022/01/12 01:03:01;;;;;;;8.75;7.85;;;1.10;99.90;;;;;;5012280;28;20213;-74
2022/01/12 01:05:31;;;;;;;8.27;7.45;;;1.10;99.90;;;;;;5017323;28;20252;-74
2022/01/12 01:07:58;;;;;;;9.82;8.32;;;1.10;99.90;;;;;;5023839;28;20709;-75
2022/01/12 01:10:36;;;;;;;8.35;7.55;;;1.10;99.90;;;;;;5026706;28;20225;-74
2022/01/12 01:13:05;;;;;;;8.80;7.90;;;1.10;99.90;;;;;;5019549;28;20194;-75
2022/01/12 01:15:54;;;;;;;8.65;7.85;;;1.10;99.90;;;;;;5028224;28;20255;-74
2022/01/12 01:26:39;;;;;;;8.90;8.00;;;1.00;99.90;;;;;;5018566;28;20293;-74
2022/01/12 01:29:07;;;;;;;8.35;7.55;;;0.90;99.90;;;;;;5019635;28;20189;-74
2022/01/12 01:31:36;;;;;;;9.73;8.90;;;0.80;99.90;;;;;;5029660;28;20222;-73
2022/01/12 01:34:11;;;;;;;8.55;7.57;;;0.80;99.90;;;;;;5030990;28;20271;-73
2022/01/12 01:36:39;;;;;;;8.40;7.60;;;0.90;99.90;;;;;;5026484;28;20194;-74
2022/01/12 01:39:08;;;;;;;9.63;8.40;;;0.90;99.90;;;;;;5021367;28;20286;-74
2022/01/12 01:41:37;;;;;;;10.40;9.38;;;0.90;99.90;;;;;;5028206;28;20241;-74
2022/01/12 01:44:32;;;;;;;9.65;8.65;;;0.90;99.90;;;;;;5026107;28;20215;-74
2022/01/12 01:55:12;;;;;;;10.80;9.77;;;0.60;99.90;;;;;;5023576;28;20214;-74
2022/01/12 01:57:40;;;;;;;10.88;9.88;;;0.60;99.90;;;;;;5032271;28;20212;-74
2022/01/12 02:00:11;;;;;;;11.05;9.90;;;0.50;99.90;;;;;;5033016;28;20580;-74
2022/01/12 02:02:38;;;;;;;11.10;9.93;;;0.50;99.90;;;;;;5033492;28;20212;-74
2022/01/12 02:05:06;;;;;;;10.23;9.23;;;0.50;99.90;;;;;;5034177;28;20210;-74
2022/01/12 02:07:33;;;;;;;11.13;10.02;;;0.50;99.90;;;;;;5026057;28;20205;-74
2022/01/12 02:10:00;;;;;;;10.88;9.77;;;0.40;99.90;;;;;;5031270;28;20194;-74
2022/01/12 02:12:30;;;;;;;10.75;9.63;;;0.50;99.90;;;;;;5030781;28;20216;-74
2022/01/12 02:14:58;;;;;;;9.77;8.88;;;0.50;99.90;;;;;;5019971;28;20305;-74
2022/01/12 02:17:27;;;;;;;10.50;9.50;;;0.40;99.90;;;;;;5023001;28;20201;-74
2022/01/12 02:20:11;;;;;;;10.80;9.57;;;0.40;99.90;;;;;;5016402;28;20285;-75
2022/01/12 02:36:29;;;;;;;10.50;9.50;;;0.30;99.90;;;;;;5028101;28;20196;-74
2022/01/12 02:41:42;;;;;;;9.13;8.25;;;0.30;99.90;;;;;;5024144;28;20661;-74
2022/01/12 02:55:10;;;;;;;10.50;9.45;;;0.10;99.90;;;;;;5033105;28;20271;-74
2022/01/12 02:57:37;;;;;;;9.98;9.07;;;0.10;99.90;;;;;;5027699;28;20212;-74
2022/01/12 03:00:08;;;;;;;10.07;8.77;;;0.00;99.90;;;;;;5028753;28;20198;-74
2022/01/12 03:02:38;;;;;;;9.80;8.90;;;0.00;99.90;;;;;;5029486;28;20268;-74
2022/01/12 03:05:28;;;;;;;11.00;9.90;;;0.00;99.90;;;;;;5026320;28;20945;-74
2022/01/12 03:07:58;;;;;;;10.68;9.68;;;0.00;99.90;;;;;;5032778;28;20290;-74
2022/01/12 03:10:27;;;;;;;10.00;9.10;;;-0.10;99.90;;;;;;5031937;28;20190;-76
2022/01/12 03:12:54;;;;;;;10.55;9.55;;;-0.10;99.90;;;;;;5018641;28;20360;-74
2022/01/12 03:15:20;;;;;;;9.90;8.82;;;-0.10;99.90;;;;;;5027650;28;20209;-74
2022/01/12 03:17:47;;;;;;;10.70;9.60;;;-0.10;99.90;;;;;;5031313;28;20194;-74
2022/01/12 03:20:15;;;;;;;11.30;9.32;;;-0.10;99.90;;;;;;5031750;28;20277;-75
2022/01/12 03:22:41;;;;;;;9.52;8.63;;;-0.10;99.90;;;;;;5031104;28;20193;-74
2022/01/12 03:25:09;;;;;;;11.57;10.38;;;-0.20;99.90;;;;;;5018541;28;20232;-74
2022/01/12 03:27:39;;;;;;;10.52;9.43;;;-0.20;99.90;;;;;;5026147;28;20199;-74
2022/01/12 03:30:06;;;;;;;11.45;10.35;;;-0.20;99.90;;;;;;5022203;28;20194;-75
2022/01/12 03:32:39;;;;;;;11.50;10.30;;;-0.30;99.90;;;;;;5027214;28;20237;-74
2022/01/12 03:35:11;;;;;;;10.27;9.25;;;-0.30;99.90;;;;;;5027649;28;20210;-74
2022/01/12 03:37:53;;;;;;;9.80;8.80;;;-0.30;99.90;;;;;;5028010;28;20205;-74
2022/01/12 03:40:19;;;;;;;10.65;9.55;;;-0.30;99.90;;;;;;5031031;28;20202;-74
2022/01/12 03:42:49;;;;;;;10.60;9.50;;;-0.20;99.90;;;;;;5026592;28;20200;-74
2022/01/12 03:45:16;;;;;;;10.38;9.38;;;-0.30;99.90;;;;;;5031633;28;20239;-74
2022/01/12 03:47:43;;;;;;;10.57;9.55;;;-0.30;99.90;;;;;;5030508;28;20207;-74
2022/01/12 03:50:10;;;;;;;11.02;10.02;;;-0.30;99.90;;;;;;5031697;28;20255;-74
2022/01/12 03:52:37;;;;;;;10.93;9.50;;;-0.40;99.90;;;;;;5019341;28;20241;-74
2022/01/12 03:55:05;;;;;;;10.95;9.80;;;-0.40;99.90;;;;;;5015189;28;20301;-74
2022/01/12 03:57:32;;;;;;;10.40;9.50;;;-0.40;99.90;;;;;;5024384;28;20194;-74
2022/01/12 04:00:01;;;;;;;11.00;9.88;;;-0.50;99.90;;;;;;5031064;28;20621;-74
2022/01/12 04:02:28;;;;;;;10.80;9.70;;;-0.50;99.90;;;;;;5024688;28;20204;-74
2022/01/12 04:05:10;;;;;;;11.15;10.05;;;-0.50;99.90;;;;;;5017714;28;20211;-76
2022/01/12 04:10:22;;;;;;;11.55;10.45;;;-0.60;99.90;;;;;;5024931;28;20235;-74
2022/01/12 04:12:49;;;;;;;11.60;10.48;;;-0.60;99.90;;;;;;5017376;28;20316;-74
2022/01/12 04:15:17;;;;;;;11.82;10.60;;;-0.60;99.90;;;;;;5014890;28;20671;-74
2022/01/12 04:17:44;;;;;;;14.45;12.63;;;-0.60;99.90;;;;;;5030913;28;20198;-74
2022/01/12 04:20:11;;;;;;;12.45;11.15;;;-0.70;99.90;;;;;;5026750;28;20208;-74
2022/01/12 04:25:25;;;;;;;15.75;12.43;;;-0.80;99.90;;;;;;5023989;28;20688;-74
2022/01/12 04:27:53;;;;;;;12.85;11.65;;;-0.80;99.90;;;;;;5025751;28;20540;-74
2022/01/12 04:30:21;;;;;;;13.60;12.20;;;-0.80;99.90;;;;;;5026286;28;20197;-74
2022/01/12 04:32:48;;;;;;;12.40;11.10;;;-0.80;99.90;;;;;;5030499;28;20227;-74
2022/01/12 04:35:16;;;;;;;12.30;11.05;;;-0.80;99.90;;;;;;5027369;28;20240;-74
2022/01/12 04:37:43;;;;;;;11.68;10.57;;;-0.80;99.90;;;;;;5020370;28;20689;-74
2022/01/12 04:40:11;;;;;;;11.55;10.30;;;-0.90;99.90;;;;;;5027050;28;20225;-74
2022/01/12 04:42:38;;;;;;;12.23;10.90;;;-0.90;99.90;;;;;;5018826;28;20209;-74
2022/01/12 04:45:18;;;;;;;12.68;11.05;;;-0.90;99.90;;;;;;5028434;28;20219;-74
2022/01/12 04:47:59;;;;;;;12.63;11.32;;;-0.90;99.90;;;;;;5030756;28;20198;-74
2022/01/12 04:50:28;;;;;;;14.07;11.88;;;-0.90;99.90;;;;;;5027467;28;20186;-74
2022/01/12 04:52:56;;;;;;;11.73;10.50;;;-0.90;99.90;;;;;;5016980;28;20586;-74
2022/01/12 04:55:23;;;;;;;12.13;11.02;;;-0.90;99.90;;;;;;5023874;28;20224;-74
2022/01/12 04:57:50;;;;;;;12.32;11.20;;;-1.00;99.90;;;;;;5028942;28;20722;-75
2022/01/12 05:00:18;;;;;;;12.45;11.35;;;-1.00;99.90;;;;;;5019913;28;20536;-74
2022/01/12 05:08:24;;;;;;;12.30;11.10;;;-1.00;99.90;;;;;;5004434;28;20190;-74
2022/01/12 05:13:37;;;;;;;13.27;11.88;;;-1.10;99.90;;;;;;5018991;28;20233;-75
2022/01/12 05:16:05;;;;;;;11.82;10.50;;;-1.10;99.90;;;;;;5018182;28;20660;-72
2022/01/12 05:18:35;;;;;;;13.30;11.90;;;-1.10;99.90;;;;;;5023668;28;20717;-75
2022/01/12 05:21:03;;;;;;;12.27;11.07;;;-1.10;99.90;;;;;;5026270;28;20214;-75
2022/01/12 05:23:30;;;;;;;12.57;11.30;;;-1.10;99.90;;;;;;5023145;28;20242;-74
2022/01/12 05:25:57;;;;;;;14.68;13.20;;;-1.20;99.90;;;;;;5023969;28;20279;-74
2022/01/12 05:28:25;;;;;;;12.95;11.48;;;-1.20;99.90;;;;;;5018794;28;20204;-74
2022/01/12 05:30:53;;;;;;;13.90;12.40;;;-1.20;99.90;;;;;;5019231;28;20551;-74
2022/01/12 05:33:22;;;;;;;13.70;12.38;;;-1.20;99.90;;;;;;5024881;28;20247;-74
2022/01/12 05:35:51;;;;;;;11.95;10.73;;;-1.20;99.90;;;;;;5021546;28;20706;-74
2022/01/12 05:38:18;;;;;;;12.10;11.00;;;-1.20;99.90;;;;;;5011973;28;20227;-75
2022/01/12 05:40:47;;;;;;;13.05;11.75;;;-1.10;99.90;;;;;;5023359;28;20657;-74
2022/01/12 05:43:14;;;;;;;12.68;11.38;;;-1.10;99.90;;;;;;5024795;28;20229;-74
2022/01/12 05:45:44;;;;;;;15.07;12.45;;;-1.10;99.90;;;;;;5022717;28;20581;-74
2022/01/12 05:50:57;;;;;;;12.75;11.07;;;-1.10;99.90;;;;;;5027648;28;20192;-74
2022/01/12 05:53:24;;;;;;;13.18;11.80;;;-1.10;99.90;;;;;;5024498;28;20682;-74
2022/01/12 05:55:51;;;;;;;13.00;11.70;;;-1.10;99.90;;;;;;5021341;28;20661;-74
2022/01/12 05:58:18;;;;;;;13.05;11.75;;;-1.10;99.90;;;;;;5021494;28;20288;-74
2022/01/12 06:00:45;;;;;;;13.93;11.95;;;-1.10;99.90;;;;;;5026705;28;20206;-74
2022/01/12 06:03:12;;;;;;;12.02;10.75;;;-1.20;99.90;;;;;;5022341;28;20232;-75
2022/01/12 06:05:38;;;;;;;14.10;11.98;;;-1.20;99.90;;;;;;5022979;28;20213;-76
2022/01/12 06:08:07;;;;;;;14.02;12.52;;;-1.20;99.90;;;;;;5016905;28;20205;-70
2022/01/12 06:10:34;;;;;;;13.75;12.35;;;-1.20;99.90;;;;;;5025473;28;20301;-72
2022/01/12 06:13:01;;;;;;;14.13;12.63;;;-1.20;99.90;;;;;;5024813;28;20311;-74
2022/01/12 06:15:28;;;;;;;15.38;13.73;;;-1.20;99.90;;;;;;5013058;28;20743;-74
2022/01/12 06:17:55;;;;;;;14.55;12.98;;;-1.30;99.90;;;;;;5021420;28;20214;-76
2022/01/12 06:20:22;;;;;;;13.73;12.20;;;-1.30;99.90;;;;;;5019438;28;20303;-74
2022/01/12 06:22:49;;;;;;;15.55;13.82;;;-1.30;99.90;;;;;;5023589;28;20632;-75
2022/01/12 06:25:17;;;;;;;14.38;12.88;;;-1.20;99.90;;;;;;5023424;28;20194;-74
2022/01/12 06:27:54;;;;;;;15.38;12.77;;;-1.20;99.90;;;;;;5018685;28;20228;-75
2022/01/12 06:33:08;;;;;;;14.90;12.98;;;-1.10;99.90;;;;;;5027713;28;20232;-75
2022/01/12 06:35:36;;;;;;;13.35;12.00;;;-1.10;99.90;;;;;;5029719;28;20545;-75
2022/01/12 06:38:02;;;;;;;13.43;12.02;;;-1.10;99.90;;;;;;5027690;28;20819;-75
2022/01/12 06:40:31;;;;;;;14.05;12.60;;;-1.10;99.90;;;;;;5027761;28;20203;-75
2022/01/12 06:42:58;;;;;;;15.30;13.70;;;-1.20;99.90;;;;;;5029118;28;20755;-75
2022/01/12 06:45:25;;;;;;;14.80;12.30;;;-1.20;99.90;;;;;;5026876;28;20211;-75
2022/01/12 06:47:52;;;;;;;14.45;12.50;;;-1.30;99.90;;;;;;5025654;28;20201;-75
2022/01/12 06:50:19;;;;;;;13.48;12.07;;;-1.40;99.90;;;;;;5029528;28;20194;-76
2022/01/12 06:52:46;;;;;;;14.18;12.68;;;-1.50;99.90;;;;;;5026178;28;20224;-75
2022/01/12 06:55:13;;;;;;;14.18;12.50;;;-1.50;99.90;;;;;;5027653;28;20204;-75
2022/01/12 06:57:41;;;;;;;14.48;12.98;;;-1.50;99.90;;;;;;5028956;28;20592;-74
2022/01/12 07:00:09;;;;;;;13.45;12.02;;;-1.50;99.90;;;;;;5025497;28;20207;-75
2022/01/12 07:02:36;;;;;;;14.30;12.80;;;-1.50;99.90;;;;;;5026628;28;20209;-75
2022/01/12 07:05:03;;;;;;;15.63;12.68;;;-1.50;99.90;;;;;;5030045;28;20236;-75
2022/01/12 07:07:30;;;;;;;14.07;12.65;;;-1.60;99.90;;;;;;5027196;28;20212;-75
2022/01/12 07:09:57;;;;;;;14.38;12.88;;;-1.60;99.90;;;;;;5027656;28;20288;-75
2022/01/12 07:12:24;;;;;;;15.38;13.73;;;-1.60;99.90;;;;;;5030157;28;20208;-83
2022/01/12 07:14:52;;;;;;;16.77;14.40;;;-1.70;99.90;;;;;;5019567;28;20216;-75
2022/01/12 07:17:19;;;;;;;15.38;13.77;;;-1.70;99.90;;;;;;5025800;28;20271;-75
2022/01/12 07:19:46;;;;;;;15.15;13.55;;;-1.80;99.90;;;;;;5029576;28;20215;-75
2022/01/12 07:22:13;;;;;;;15.93;14.25;;;-1.80;99.90;;;;;;5030510;28;20200;-76
2022/01/12 07:24:40;;;;;;;16.52;14.77;;;-1.80;99.90;;;;;;5027189;28;20226;-75
2022/01/12 07:27:07;;;;;;;16.83;15.02;;;-1.90;99.90;;;;;;5025953;28;20655;-75
2022/01/12 07:29:34;;;;;;;17.88;15.18;;;-1.90;99.90;;;;;;5030795;28;20200;-75
2022/01/12 07:32:03;;;;;;;17.65;15.77;;;-1.90;99.90;;;;;;5021188;28;20208;-75
2022/01/12 07:34:30;;;;;;;18.63;15.95;;;-1.90;99.90;;;;;;5025784;28;20667;-76
2022/01/12 07:36:57;;;;;;;17.50;15.68;;;-1.90;99.90;;;;;;5030537;28;20621;-75
2022/01/12 07:39:24;;;;;;;16.10;14.50;;;-1.90;99.90;;;;;;5026404;28;20202;-75
2022/01/12 07:41:51;;;;;;;17.10;15.27;;;-1.90;99.90;;;;;;5030957;28;20275;-75
2022/01/12 07:44:17;;;;;;;16.42;14.65;;;-1.70;99.90;;;;;;5026589;28;20256;-75
2022/01/12 07:46:44;;;;;;;18.88;14.85;;;-1.60;99.90;;;;;;5024117;28;20304;-72
2022/01/12 07:49:13;;;;;;;15.93;14.13;;;-1.40;99.90;;;;;;5025023;28;20324;-72
2022/01/12 07:51:40;;;;;;;17.38;15.27;;;-1.30;99.90;;;;;;5028794;28;21006;-72
2022/01/12 07:54:06;;;;;;;16.45;14.75;;;-1.20;99.90;;;;;;5030387;28;20588;-73
2022/01/12 07:56:34;;;;;;;17.55;15.02;;;-1.10;99.90;;;;;;5028193;28;20290;-73
2022/01/12 07:59:00;;;;;;;16.23;14.27;;;-0.90;99.90;;;;;;5028574;28;20882;-73
2022/01/12 08:01:27;;;;;;;16.25;13.35;;;-0.70;99.90;;;;;;5023546;28;20303;-73
2022/01/12 08:03:54;;;;;;;16.55;14.07;;;-0.50;99.90;;;;;;5027759;28;20284;-74
2022/01/12 08:06:23;;;;;;;16.92;14.80;;;-0.40;99.90;;;;;;5034425;28;20200;-73
2022/01/12 08:08:50;;;;;;;15.00;13.50;;;-0.20;99.90;;;;;;5025207;28;20268;-73
2022/01/12 08:11:17;;;;;;;15.98;13.30;;;-0.10;99.90;;;;;;5026793;28;20616;-73
2022/01/12 08:13:45;;;;;;;16.30;13.80;;;0.10;99.90;;;;;;5023252;28;20256;-75
2022/01/12 08:16:12;;;;;;;14.98;13.57;;;0.20;99.90;;;;;;5029022;28;20535;-74
2022/01/12 08:18:39;;;;;;;14.40;12.90;;;0.30;99.90;;;;;;5026571;28;20329;-73
2022/01/12 08:21:06;;;;;;;17.08;12.50;;;0.40;99.90;;;;;;5028754;28;20213;-74
2022/01/12 08:23:35;;;;;;;15.25;13.05;;;0.60;99.90;;;;;;5024152;28;20218;-73
2022/01/12 08:26:02;;;;;;;14.88;12.55;;;0.70;99.90;;;;;;5026323;28;20265;-77
2022/01/12 08:28:29;;;;;;;14.60;13.10;;;0.90;99.90;;;;;;5025643;28;20668;-75
2022/01/12 08:30:56;;;;;;;14.93;12.85;;;1.10;99.90;;;;;;5025868;28;20208;-75
2022/01/12 08:33:23;;;;;;;14.20;12.80;;;1.30;99.90;;;;;;5025227;28;20232;-75
2022/01/12 08:35:50;;;;;;;15.18;13.63;;;1.30;99.90;;;;;;5020770;28;20593;-75
2022/01/12 08:38:17;;;;;;;14.73;13.23;;;1.10;99.90;;;;;;5024974;28;20248;-75
2022/01/12 08:40:45;;;;;;;16.17;14.05;;;0.90;99.90;;;;;;5021813;28;20194;-76
2022/01/12 08:43:13;;;;;;;15.77;14.18;;;0.80;99.90;;;;;;5029526;28;20228;-75
2022/01/12 08:45:40;;;;;;;15.00;13.20;;;0.70;99.90;;;;;;5027725;28;20226;-75
2022/01/12 08:48:07;;;;;;;15.60;13.45;;;0.50;99.90;;;;;;5026662;28;20280;-75
2022/01/12 08:50:34;;;;;;;16.45;13.57;;;0.70;99.90;;;;;;5027381;28;20202;-75
2022/01/12 08:53:01;;;;;;;14.43;12.90;;;1.10;99.90;;;;;;5025441;28;20254;-75
2022/01/12 08:55:28;;;;;;;14.18;12.82;;;1.60;99.90;;;;;;5024937;28;20194;-75
2022/01/12 08:57:58;;;;;;;14.88;13.40;;;1.90;99.90;;;;;;5026741;28;20288;-75
2022/01/12 09:00:26;;;;;;;14.23;12.68;;;2.10;99.90;;;;;;5026306;28;20199;-74
2022/01/12 09:02:53;;;;;;;13.77;12.38;;;2.00;99.90;;;;;;5025268;28;20704;-75
2022/01/12 09:05:20;;;;;;;14.90;13.40;;;1.80;99.90;;;;;;5024857;28;20622;-75
2022/01/12 09:07:47;;;;;;;14.80;12.73;;;1.70;99.90;;;;;;5026336;28;20691;-75
2022/01/12 09:10:14;;;;;;;14.43;13.05;;;1.70;99.90;;;;;;5025968;28;20545;-75
2022/01/12 09:12:42;;;;;;;12.50;11.30;;;2.10;99.90;;;;;;5027516;28;20231;-75
2022/01/12 09:15:13;;;;;;;11.07;9.90;;;2.70;99.90;;;;;;5026024;28;20227;-75
2022/01/12 09:17:40;;;;;;;12.13;11.02;;;3.30;99.90;;;;;;5028830;28;20204;-75
2022/01/12 09:20:09;;;;;;;12.30;11.13;;;3.80;99.90;;;;;;5024271;28;20206;-75
2022/01/12 09:22:37;;;;;;;12.50;11.25;;;4.40;99.90;;;;;;5027259;28;20629;-76
2022/01/12 09:25:06;;;;;;;10.68;9.68;;;5.10;99.90;;;;;;5025252;28;20201;-75
2022/01/12 09:27:33;;;;;;;11.13;10.07;;;5.70;99.90;;;;;;5027639;28;20280;-76
2022/01/12 09:30:00;;;;;;;10.82;9.82;;;6.70;99.90;;;;;;5024713;28;20197;-75
2022/01/12 09:32:28;;;;;;;10.80;9.80;;;7.60;99.90;;;;;;5026984;28;20209;-75
2022/01/12 09:34:55;;;;;;;10.43;9.52;;;8.00;99.90;;;;;;5026618;28;20264;-75
2022/01/12 09:37:23;;;;;;;12.32;10.23;;;7.90;99.90;;;;;;5026257;28;20194;-75
2022/01/12 09:39:50;;;;;;;10.70;9.70;;;8.10;99.90;;;;;;5023919;28;20194;-75
2022/01/12 09:42:18;;;;;;;11.18;10.18;;;8.30;99.90;;;;;;5025442;28;20228;-75
2022/01/12 09:44:46;;;;;;;10.88;9.80;;;8.70;99.90;;;;;;5027915;28;20198;-75
2022/01/12 09:47:15;;;;;;;10.73;9.73;;;8.70;99.90;;;;;;5027912;28;20190;-75
2022/01/12 09:49:45;;;;;;;12.00;10.90;;;8.90;99.80;;;;;;5025977;28;20205;-75
2022/01/12 09:52:12;;;;;;;11.05;10.00;;;8.90;99.20;;;;;;5024983;28;20222;-76
2022/01/12 09:54:40;;;;;;;11.05;10.05;;;9.20;97.70;;;;;;5024017;28;20222;-76
2022/01/12 09:57:08;;;;;;;11.50;10.45;;;9.40;96.90;;;;;;5023065;28;20231;-76
2022/01/12 09:59:35;;;;;;;10.15;9.25;;;9.50;96.50;;;;;;5019995;28;20198;-76
2022/01/12 10:02:03;;;;;;;10.27;9.38;;;9.90;94.80;;;;;;5026935;28;20332;-75
2022/01/12 10:04:32;;;;;;;10.15;9.35;;;10.10;93.70;;;;;;5022934;28;20768;-75
2022/01/12 10:07:02;;;;;;;10.38;9.48;;;10.30;93.10;;;;;;5028565;28;20232;-74
2022/01/12 10:09:33;;;;;;;11.93;10.25;;;10.80;91.90;;;;;;5030359;28;20224;-76
2022/01/12 10:12:04;;;;;;;11.65;9.90;;;11.00;91.50;;;;;;5024958;28;20232;-76
2022/01/12 10:14:46;;;;;;;10.10;9.25;;;11.00;90.20;;;;;;5026115;28;20684;-75
2022/01/12 10:17:14;;;;;;;10.65;9.80;;;11.10;89.60;;;;;;5032039;28;20262;-75
2022/01/12 10:19:42;;;;;;;10.95;10.00;;;11.30;88.90;;;;;;5029097;28;20310;-76
2022/01/12 10:22:14;;;;;;;10.23;9.43;;;11.50;88.10;;;;;;5026554;28;20233;-76
2022/01/12 10:24:43;;;;;;;11.07;10.07;;;11.60;86.50;;;;;;5028604;28;20201;-76
2022/01/12 10:27:13;;;;;;;11.32;10.20;;;11.90;85.10;;;;;;5027337;28;20289;-76
2022/01/12 10:29:40;;;;;;;10.68;9.80;;;12.20;83.80;;;;;;5024395;28;20193;-76
2022/01/12 10:32:09;;;;;;;10.40;9.50;;;11.90;82.80;;;;;;5024302;28;20210;-76
2022/01/12 10:34:41;;;;;;;9.25;8.55;;;11.80;80.10;;;;;;5025898;28;20230;-75
2022/01/12 10:37:11;;;;;;;9.40;8.60;;;10.90;80.40;;;;;;5027229;28;20199;-75
2022/01/12 10:39:41;;;;;;;10.95;10.05;;;10.60;81.00;;;;;;5015971;28;20204;-75
2022/01/12 10:42:10;;;;;;;11.02;10.02;;;9.80;85.30;;;;;;5016407;28;20218;-75
2022/01/12 10:44:38;;;;;;;11.60;10.60;;;9.50;86.60;;;;;;5032419;28;20198;-75
2022/01/12 10:47:08;;;;;;;10.77;9.88;;;9.40;86.10;;;;;;5027574;28;20194;-76
2022/01/12 10:49:37;;;;;;;10.60;9.70;;;9.40;89.20;;;;;;5031944;28;20210;-75
2022/01/12 10:52:06;;;;;;;12.85;10.63;;;10.00;87.00;;;;;;5030443;28;20205;-76
2022/01/12 10:54:47;;;;;;;11.38;10.38;;;10.30;83.90;;;;;;5027728;28;20226;-76
2022/01/12 10:57:22;;;;;;;10.75;9.85;;;9.80;86.50;;;;;;5028369;28;20244;-76
2022/01/12 11:00:22;;;;;;;11.05;10.05;;;10.40;85.70;;;;;;5023699;28;20199;-75
2022/01/12 11:02:51;;;;;;;11.45;10.35;;;11.00;83.20;;;;;;4996488;28;20229;-76
2022/01/12 11:05:22;;;;;;;9.27;8.48;;;11.30;82.90;;;;;;5028708;28;20216;-76
2022/01/12 11:07:50;;;;;;;10.30;9.40;;;11.60;79.10;;;;;;5025937;28;20279;-76
2022/01/12 11:10:20;;;;;;;10.20;9.40;;;11.40;81.10;;;;;;5026203;28;20660;-76
2022/01/12 11:12:48;;;;;;;10.65;9.75;;;11.60;81.10;;;;;;5030886;28;20220;-76
2022/01/12 11:15:17;;;;;;;11.57;10.68;;;12.10;80.40;;;;;;5026279;28;20226;-76
2022/01/12 11:17:46;;;;;;;9.70;8.90;;;12.60;78.40;;;;;;5026924;28;20212;-75
2022/01/12 11:20:17;;;;;;;10.40;9.50;;;13.10;75.80;;;;;;5026328;28;20564;-76
2022/01/12 11:22:57;;;;;;;10.85;9.85;;;13.10;75.10;;;;;;5030762;28;20234;-75
2022/01/12 11:25:28;;;;;;;10.27;9.38;;;12.50;75.00;;;;;;5024486;28;20196;-75
2022/01/12 11:28:12;;;;;;;9.77;8.90;;;12.50;74.60;;;;;;5019987;28;20200;-76
2022/01/12 11:30:40;;;;;;;9.88;8.98;;;12.60;74.60;;;;;;5027960;28;20565;-75
2022/01/12 11:33:10;;;;;;;10.48;9.57;;;12.70;72.90;;;;;;5028959;28;20315;-75
2022/01/12 11:35:40;;;;;;;10.32;9.43;;;12.70;73.10;;;;;;5027217;28;20283;-75
2022/01/12 11:38:08;;;;;;;10.52;9.63;;;12.50;74.30;;;;;;5028053;28;20202;-75
2022/01/12 11:40:41;;;;;;;10.27;9.38;;;11.90;74.40;;;;;;5029805;28;20782;-75
2022/01/12 11:43:20;;;;;;;10.70;9.80;;;12.20;76.20;;;;;;5010091;28;20618;-77
2022/01/12 11:46:00;;;;;;;11.13;10.23;;;12.10;75.60;;;;;;5029243;28;20227;-76
2022/01/12 11:48:32;;;;;;;10.35;9.45;;;11.70;75.90;;;;;;5030927;28;20204;-76
2022/01/12 11:50:59;;;;;;;10.95;10.05;;;11.40;76.80;;;;;;5023690;28;20208;-76
2022/01/12 11:53:27;;;;;;;10.38;9.48;;;11.20;76.70;;;;;;5023452;28;20766;-76
2022/01/12 11:55:56;;;;;;;10.07;9.18;;;11.20;77.00;;;;;;5030732;28;20318;-76
2022/01/12 11:58:23;;;;;;;11.25;10.20;;;11.20;76.10;;;;;;5025381;28;20660;-77
2022/01/12 12:00:52;;;;;;;11.88;10.68;;;11.00;77.50;;;;;;5027403;28;20197;-76
2022/01/12 12:03:20;;;;;;;11.05;10.05;;;10.70;77.70;;;;;;5027945;28;20226;-76
2022/01/12 12:05:48;;;;;;;11.95;10.90;;;10.40;78.60;;;;;;5028451;28;20199;-77
2022/01/12 12:08:26;;;;;;;11.32;10.43;;;10.30;79.80;;;;;;5024621;28;20228;-76
2022/01/12 12:10:54;;;;;;;10.88;9.95;;;10.40;79.90;;;;;;5025217;28;20318;-76
2022/01/12 12:13:23;;;;;;;10.15;9.35;;;10.60;79.70;;;;;;5022874;28;20221;-76
2022/01/12 12:15:51;;;;;;;10.05;9.20;;;10.70;79.60;;;;;;5027746;28;20230;-76
2022/01/12 12:18:18;;;;;;;9.77;8.95;;;10.80;78.90;;;;;;5028214;28;20265;-76
2022/01/12 12:20:45;;;;;;;10.45;9.50;;;10.80;77.70;;;;;;5028802;28;20286;-76
2022/01/12 12:23:12;;;;;;;10.10;9.20;;;10.60;77.90;;;;;;5024163;28;20215;-76
2022/01/12 12:25:39;;;;;;;9.60;8.82;;;10.50;78.60;;;;;;5029228;28;20206;-76
2022/01/12 12:28:08;;;;;;;8.88;8.18;;;10.80;77.90;;;;;;5025627;28;20216;-77
2022/01/12 12:30:39;;;;;;;9.70;8.95;;;10.40;77.80;;;;;;5027784;28;21698;-77
2022/01/12 12:33:11;;;;;;;8.93;8.23;;;10.40;79.40;;;;;;5025510;28;21758;-77
2022/01/12 12:35:39;;;;;;;9.48;8.68;;;10.60;78.90;;;;;;5030669;28;20770;-77
2022/01/12 12:38:07;;;;;;;9.20;8.30;;;10.70;78.60;;;;;;5027055;28;20206;-77
2022/01/12 12:40:36;;;;;;;10.07;9.18;;;10.30;77.40;;;;;;5030677;28;20285;-77
2022/01/12 12:43:06;;;;;;;10.50;9.70;;;9.80;80.00;;;;;;5028845;28;20218;-77
2022/01/12 12:45:43;;;;;;;9.45;8.65;;;9.80;79.70;;;;;;5027817;28;20213;-77
2022/01/12 12:48:12;;;;;;;9.13;8.35;;;10.00;79.40;;;;;;5027723;28;20220;-76
2022/01/12 12:50:39;;;;;;;9.13;7.90;;;10.30;79.30;;;;;;5028390;28;20200;-76
2022/01/12 12:53:06;;;;;;;9.10;8.40;;;10.80;79.10;;;;;;5028232;28;20314;-77
2022/01/12 12:55:37;;;;;;;8.68;7.97;;;11.40;77.80;;;;;;5026783;28;20233;-77
2022/01/12 12:58:05;;;;;;;9.43;8.68;;;11.80;76.60;;;;;;5029079;28;20283;-77
2022/01/12 13:00:32;;;;;;;10.43;9.52;;;11.90;75.10;;;;;;5016848;28;20590;-78
2022/01/12 13:03:02;;;;;;;10.00;9.20;;;11.70;74.30;;;;;;5016051;28;20316;-77
2022/01/12 13:05:31;;;;;;;9.50;8.70;;;11.40;74.70;;;;;;5020881;28;20196;-77
2022/01/12 13:07:58;;;;;;;10.20;9.30;;;11.30;75.70;;;;;;5027277;28;20202;-77
2022/01/12 13:10:27;;;;;;;10.60;9.68;;;11.40;74.50;;;;;;5021082;28;20201;-77
2022/01/12 13:12:57;;;;;;;9.32;8.63;;;11.60;75.40;;;;;;5020364;28;20222;-77
2022/01/12 13:15:26;;;;;;;9.05;8.25;;;11.50;75.70;;;;;;5027629;28;20223;-77
2022/01/12 13:18:07;;;;;;;10.25;9.45;;;11.60;75.70;;;;;;5028931;28;20209;-76
2022/01/12 13:23:23;;;;;;;10.00;9.23;;;11.20;75.50;;;;;;5021208;28;20707;-77
2022/01/12 13:25:53;;;;;;;9.50;8.80;;;11.30;77.20;;;;;;5027043;28;20202;-77
2022/01/12 13:28:20;;;;;;;8.73;8.02;;;11.60;76.30;;;;;;5025210;28;20219;-77
2022/01/12 13:30:55;;;;;;;9.35;8.63;;;12.00;76.50;;;;;;5012273;28;20695;-76
2022/01/12 13:33:29;;;;;;;9.70;8.95;;;12.40;74.10;;;;;;5024989;28;20642;-76
2022/01/12 13:35:58;;;;;;;9.23;8.52;;;12.70;74.50;;;;;;5031334;28;20295;-76
2022/01/12 13:38:27;;;;;;;9.85;9.00;;;13.00;73.40;;;;;;5025382;28;20213;-77
2022/01/12 13:40:56;;;;;;;9.18;8.38;;;13.10;73.10;;;;;;5030217;28;20256;-77
2022/01/12 13:43:24;;;;;;;8.85;8.15;;;13.20;72.90;;;;;;5038181;28;20276;-75
2022/01/12 13:46:00;;;;;;;9.52;8.82;;;13.50;72.70;;;;;;5040259;28;20198;-75
2022/01/12 13:48:31;;;;;;;10.25;9.50;;;13.60;71.80;;;;;;5035765;28;21433;-76
2022/01/12 13:51:02;;;;;;;9.52;8.82;;;13.70;71.00;;;;;;5046661;28;20194;-76
2022/01/12 13:53:35;;;;;;;8.82;8.15;;;13.60;70.00;;;;;;5042445;28;20221;-75
2022/01/12 13:56:03;;;;;;;9.13;8.43;;;13.30;70.40;;;;;;5047902;28;20282;-76
2022/01/12 13:58:32;;;;;;;9.80;9.00;;;13.30;71.10;;;;;;5032153;28;20209;-77